map of MHP home
Great Circle Mapper logo
MHP - Airport
Location
City:  Minsk, Belarus
Name:Minsk-1
ICAO / IATA:UMMM / MHP

Details
Type:Airport (Aerodrome, Airfield)
Use:Public/Civil
Latitude:5351'52"N (53.864472)
Longitude:2732'23"E (27.539683)
Datum:WGS 1984
Elevation:748 ft (228 m)
Variation:7.3E (WMM2010 magnetic declination)
Runways:1
Longest:6562 × 197 ft (2000 × 60 m), paved

Time
Time Zone:UTC+2 (DST+3)

Weather
METAR:UMMM 241730Z 15004MPS 4000 BR OVC008 M04/M05 Q1032 R12/920240 NOSIG RMK QFE753

Related Locations
Nearby:
Farthest:CHT: 11149 mi / 17943 km
Waitangi [Tuuta], Chatham Islands, NZ

Find:

   beyond  
but within

Other Information
Maps:
NOTAMs:
Links:
Sources:

  
flag of Belarus   

Sectional Chart

Flight Planning
at skyvector.com

Satellite Image

Google Maps Satellite View

 

Copyright © 2004-2014 Karl L. Swartz. All rights reserved.
The Great Circle Mapper name and logo are trademarks of the Great Circle Mapper.
All other trademarks mentioned herein belong to their respective owners.
Please see credits for attibutions and further copyright information.

  Follow gcmap on Facebook Follow gcmap on Twitter

hCard Microformat

Geo Microformat